sensor_id;sensor_type;location;lat;lon;timestamp;temperature;humidity
35325;DHT22;35135;47.510;19.036;2024-03-02T00:00:08;21.90;58.70
35325;DHT22;35135;47.510;19.036;2024-03-02T00:02:45;21.90;58.80
35325;DHT22;35135;47.510;19.036;2024-03-02T00:05:12;21.90;58.70
35325;DHT22;35135;47.510;19.036;2024-03-02T00:07:41;21.90;58.90
35325;DHT22;35135;47.510;19.036;2024-03-02T00:10:09;21.90;58.80
35325;DHT22;35135;47.510;19.036;2024-03-02T00:12:39;21.90;58.60
35325;DHT22;35135;47.510;19.036;2024-03-02T00:15:19;21.90;58.70
35325;DHT22;35135;47.510;19.036;2024-03-02T00:17:56;21.90;58.70
35325;DHT22;35135;47.510;19.036;2024-03-02T00:20:25;21.90;58.70
35325;DHT22;35135;47.510;19.036;2024-03-02T00:23:05;21.90;58.70
35325;DHT22;35135;47.510;19.036;2024-03-02T00:25:42;21.90;58.70
35325;DHT22;35135;47.510;19.036;2024-03-02T00:28:20;21.90;58.70
35325;DHT22;35135;47.510;19.036;2024-03-02T00:30:51;21.90;58.70
35325;DHT22;35135;47.510;19.036;2024-03-02T00:33:19;21.90;58.70
35325;DHT22;35135;47.510;19.036;2024-03-02T00:35:45;21.90;58.60
35325;DHT22;35135;47.510;19.036;2024-03-02T00:38:11;21.90;58.60
35325;DHT22;35135;47.510;19.036;2024-03-02T00:40:38;21.90;58.50
35325;DHT22;35135;47.510;19.036;2024-03-02T00:43:04;21.90;58.70
35325;DHT22;35135;47.510;19.036;2024-03-02T00:45:30;21.90;58.60
35325;DHT22;35135;47.510;19.036;2024-03-02T00:47:55;21.90;58.50
35325;DHT22;35135;47.510;19.036;2024-03-02T00:50:21;21.90;58.60
35325;DHT22;35135;47.510;19.036;2024-03-02T00:52:47;21.90;58.60
35325;DHT22;35135;47.510;19.036;2024-03-02T00:55:14;21.90;58.60
35325;DHT22;35135;47.510;19.036;2024-03-02T00:57:40;21.90;58.50
35325;DHT22;35135;47.510;19.036;2024-03-02T01:00:06;21.90;58.60
35325;DHT22;35135;47.510;19.036;2024-03-02T01:02:35;21.90;58.60
35325;DHT22;35135;47.510;19.036;2024-03-02T01:05:01;21.80;58.60
35325;DHT22;35135;47.510;19.036;2024-03-02T01:07:26;21.90;58.50
35325;DHT22;35135;47.510;19.036;2024-03-02T01:09:52;21.90;58.60
35325;DHT22;35135;47.510;19.036;2024-03-02T01:12:18;21.90;58.60
35325;DHT22;35135;47.510;19.036;2024-03-02T01:14:44;21.90;58.50
35325;DHT22;35135;47.510;19.036;2024-03-02T01:17:09;21.90;58.40
35325;DHT22;35135;47.510;19.036;2024-03-02T01:19:35;21.90;58.40
35325;DHT22;35135;47.510;19.036;2024-03-02T01:22:01;21.90;58.50
35325;DHT22;35135;47.510;19.036;2024-03-02T01:24:26;21.90;58.40
35325;DHT22;35135;47.510;19.036;2024-03-02T01:26:52;21.80;58.30
35325;DHT22;35135;47.510;19.036;2024-03-02T01:29:18;21.90;58.50
35325;DHT22;35135;47.510;19.036;2024-03-02T01:31:43;21.90;58.50
35325;DHT22;35135;47.510;19.036;2024-03-02T01:34:09;21.80;58.40
35325;DHT22;35135;47.510;19.036;2024-03-02T01:36:35;21.90;58.60
35325;DHT22;35135;47.510;19.036;2024-03-02T01:39:00;21.80;58.60
35325;DHT22;35135;47.510;19.036;2024-03-02T01:41:26;21.80;58.30
35325;DHT22;35135;47.510;19.036;2024-03-02T01:43:52;21.80;58.30
35325;DHT22;35135;47.510;19.036;2024-03-02T01:46:17;21.80;58.30
35325;DHT22;35135;47.510;19.036;2024-03-02T01:48:43;21.80;58.50
35325;DHT22;35135;47.510;19.036;2024-03-02T01:51:08;21.80;58.30
35325;DHT22;35135;47.510;19.036;2024-03-02T01:53:35;21.80;58.30
35325;DHT22;35135;47.510;19.036;2024-03-02T01:56:02;21.80;58.30
35325;DHT22;35135;47.510;19.036;2024-03-02T01:58:28;21.80;58.40
35325;DHT22;35135;47.510;19.036;2024-03-02T02:00:53;21.80;58.40
35325;DHT22;35135;47.510;19.036;2024-03-02T02:03:19;21.80;58.30
35325;DHT22;35135;47.510;19.036;2024-03-02T02:08:29;21.80;58.30
35325;DHT22;35135;47.510;19.036;2024-03-02T02:10:55;21.80;58.20
35325;DHT22;35135;47.510;19.036;2024-03-02T02:13:21;21.80;58.20
35325;DHT22;35135;47.510;19.036;2024-03-02T02:15:46;21.80;58.20
35325;DHT22;35135;47.510;19.036;2024-03-02T02:18:12;21.80;58.10
35325;DHT22;35135;47.510;19.036;2024-03-02T02:20:38;21.80;58.10
35325;DHT22;35135;47.510;19.036;2024-03-02T02:23:04;21.80;58.10
35325;DHT22;35135;47.510;19.036;2024-03-02T02:25:30;21.80;58.10
35325;DHT22;35135;47.510;19.036;2024-03-02T02:27:57;21.80;58.20
35325;DHT22;35135;47.510;19.036;2024-03-02T02:30:25;21.80;58.10
35325;DHT22;35135;47.510;19.036;2024-03-02T02:32:51;21.80;58.20
35325;DHT22;35135;47.510;19.036;2024-03-02T02:35:17;21.80;58.10
35325;DHT22;35135;47.510;19.036;2024-03-02T02:37:43;21.80;58.10
35325;DHT22;35135;47.510;19.036;2024-03-02T02:40:09;21.80;58.10
35325;DHT22;35135;47.510;19.036;2024-03-02T02:42:35;21.80;58.10
35325;DHT22;35135;47.510;19.036;2024-03-02T02:45:01;21.80;58.20
35325;DHT22;35135;47.510;19.036;2024-03-02T02:47:26;21.80;58.10
35325;DHT22;35135;47.510;19.036;2024-03-02T02:49:54;21.80;58.10
35325;DHT22;35135;47.510;19.036;2024-03-02T02:52:19;21.80;58.10
35325;DHT22;35135;47.510;19.036;2024-03-02T02:54:46;21.80;58.10
35325;DHT22;35135;47.510;19.036;2024-03-02T02:57:12;21.80;58.10
35325;DHT22;35135;47.510;19.036;2024-03-02T02:59:37;21.80;58.10
35325;DHT22;35135;47.510;19.036;2024-03-02T03:02:03;21.80;58.10
35325;DHT22;35135;47.510;19.036;2024-03-02T03:04:29;21.80;58.10
35325;DHT22;35135;47.510;19.036;2024-03-02T03:06:55;21.80;58.10
35325;DHT22;35135;47.510;19.036;2024-03-02T03:09:20;21.80;58.10
35325;DHT22;35135;47.510;19.036;2024-03-02T03:11:46;21.80;58.00
35325;DHT22;35135;47.510;19.036;2024-03-02T03:14:12;21.80;58.00
35325;DHT22;35135;47.510;19.036;2024-03-02T03:16:38;21.80;58.00
35325;DHT22;35135;47.510;19.036;2024-03-02T03:19:03;21.80;58.00
35325;DHT22;35135;47.510;19.036;2024-03-02T03:21:29;21.70;58.00
35325;DHT22;35135;47.510;19.036;2024-03-02T03:23:54;21.80;58.00
35325;DHT22;35135;47.510;19.036;2024-03-02T03:26:20;21.70;57.90
35325;DHT22;35135;47.510;19.036;2024-03-02T03:28:46;21.80;58.00
35325;DHT22;35135;47.510;19.036;2024-03-02T03:31:12;21.70;58.00
35325;DHT22;35135;47.510;19.036;2024-03-02T03:33:37;21.80;58.00
35325;DHT22;35135;47.510;19.036;2024-03-02T03:36:03;21.80;58.00
35325;DHT22;35135;47.510;19.036;2024-03-02T03:38:29;21.70;57.90
35325;DHT22;35135;47.510;19.036;2024-03-02T03:40:55;21.70;57.90
35325;DHT22;35135;47.510;19.036;2024-03-02T03:43:21;21.80;57.90
35325;DHT22;35135;47.510;19.036;2024-03-02T03:45:47;21.70;58.00
35325;DHT22;35135;47.510;19.036;2024-03-02T03:48:12;21.70;57.90
35325;DHT22;35135;47.510;19.036;2024-03-02T03:50:38;21.70;57.90
35325;DHT22;35135;47.510;19.036;2024-03-02T03:53:03;21.80;57.90
35325;DHT22;35135;47.510;19.036;2024-03-02T03:55:29;21.80;58.00
35325;DHT22;35135;47.510;19.036;2024-03-02T03:57:55;21.80;57.90
35325;DHT22;35135;47.510;19.036;2024-03-02T04:00:20;21.80;57.90
35325;DHT22;35135;47.510;19.036;2024-03-02T04:02:46;21.70;57.90
35325;DHT22;35135;47.510;19.036;2024-03-02T04:05:12;21.70;57.90
35325;DHT22;35135;47.510;19.036;2024-03-02T04:07:37;21.70;57.80
35325;DHT22;35135;47.510;19.036;2024-03-02T04:10:09;21.70;57.80
35325;DHT22;35135;47.510;19.036;2024-03-02T04:12:39;21.70;57.80
35325;DHT22;35135;47.510;19.036;2024-03-02T04:15:05;21.70;57.80
35325;DHT22;35135;47.510;19.036;2024-03-02T04:17:32;21.70;57.90
35325;DHT22;35135;47.510;19.036;2024-03-02T04:19:59;21.70;57.80
35325;DHT22;35135;47.510;19.036;2024-03-02T04:22:26;21.70;57.80
35325;DHT22;35135;47.510;19.036;2024-03-02T04:24:52;21.70;57.80
35325;DHT22;35135;47.510;19.036;2024-03-02T04:27:17;21.70;57.80
35325;DHT22;35135;47.510;19.036;2024-03-02T04:29:43;21.70;57.80
35325;DHT22;35135;47.510;19.036;2024-03-02T04:32:08;21.70;57.80
35325;DHT22;35135;47.510;19.036;2024-03-02T04:34:34;21.70;57.80
35325;DHT22;35135;47.510;19.036;2024-03-02T04:37:00;21.70;57.70
35325;DHT22;35135;47.510;19.036;2024-03-02T04:39:26;21.70;57.70
35325;DHT22;35135;47.510;19.036;2024-03-02T04:41:51;21.70;57.70
35325;DHT22;35135;47.510;19.036;2024-03-02T04:44:17;21.70;57.80
35325;DHT22;35135;47.510;19.036;2024-03-02T04:46:43;21.70;57.70
35325;DHT22;35135;47.510;19.036;2024-03-02T04:49:08;21.70;57.70
35325;DHT22;35135;47.510;19.036;2024-03-02T04:51:34;21.70;57.70
35325;DHT22;35135;47.510;19.036;2024-03-02T04:53:59;21.70;57.70
35325;DHT22;35135;47.510;19.036;2024-03-02T04:56:25;21.70;57.80
35325;DHT22;35135;47.510;19.036;2024-03-02T04:58:56;21.70;57.70
35325;DHT22;35135;47.510;19.036;2024-03-02T05:01:22;21.70;58.20
35325;DHT22;35135;47.510;19.036;2024-03-02T05:03:48;21.70;57.70
35325;DHT22;35135;47.510;19.036;2024-03-02T05:06:13;21.70;57.70
35325;DHT22;35135;47.510;19.036;2024-03-02T05:08:39;21.70;57.70
35325;DHT22;35135;47.510;19.036;2024-03-02T05:11:05;21.70;57.60
35325;DHT22;35135;47.510;19.036;2024-03-02T05:13:49;21.70;57.60
35325;DHT22;35135;47.510;19.036;2024-03-02T05:16:15;21.70;57.60
35325;DHT22;35135;47.510;19.036;2024-03-02T05:18:40;21.70;57.60
35325;DHT22;35135;47.510;19.036;2024-03-02T05:21:06;21.70;57.60
35325;DHT22;35135;47.510;19.036;2024-03-02T05:23:32;21.70;57.60
35325;DHT22;35135;47.510;19.036;2024-03-02T05:25:57;21.60;57.60
35325;DHT22;35135;47.510;19.036;2024-03-02T05:28:23;21.70;57.60
35325;DHT22;35135;47.510;19.036;2024-03-02T05:30:48;21.60;57.60
35325;DHT22;35135;47.510;19.036;2024-03-02T05:33:15;21.60;57.60
35325;DHT22;35135;47.510;19.036;2024-03-02T05:35:40;21.70;57.70
35325;DHT22;35135;47.510;19.036;2024-03-02T05:38:06;21.60;57.70
35325;DHT22;35135;47.510;19.036;2024-03-02T05:40:31;21.60;57.60
35325;DHT22;35135;47.510;19.036;2024-03-02T05:42:57;21.70;57.60
35325;DHT22;35135;47.510;19.036;2024-03-02T05:45:23;21.70;57.60
35325;DHT22;35135;47.510;19.036;2024-03-02T05:47:48;21.70;57.60
35325;DHT22;35135;47.510;19.036;2024-03-02T05:50:14;21.70;57.50
35325;DHT22;35135;47.510;19.036;2024-03-02T05:52:40;21.70;57.40
35325;DHT22;35135;47.510;19.036;2024-03-02T05:55:06;21.80;57.50
35325;DHT22;35135;47.510;19.036;2024-03-02T05:57:32;21.70;57.40
35325;DHT22;35135;47.510;19.036;2024-03-02T06:00:10;21.70;57.40
35325;DHT22;35135;47.510;19.036;2024-03-02T06:02:39;21.80;57.40
35325;DHT22;35135;47.510;19.036;2024-03-02T06:05:06;21.80;57.40
35325;DHT22;35135;47.510;19.036;2024-03-02T06:07:32;21.80;57.30
35325;DHT22;35135;47.510;19.036;2024-03-02T06:09:58;21.80;57.40
35325;DHT22;35135;47.510;19.036;2024-03-02T06:12:24;21.80;57.30
35325;DHT22;35135;47.510;19.036;2024-03-02T06:14:49;21.80;57.50
35325;DHT22;35135;47.510;19.036;2024-03-02T06:17:15;21.80;57.40
35325;DHT22;35135;47.510;19.036;2024-03-02T06:19:41;21.80;57.60
35325;DHT22;35135;47.510;19.036;2024-03-02T06:22:06;21.80;57.30
35325;DHT22;35135;47.510;19.036;2024-03-02T06:24:36;21.80;57.40
35325;DHT22;35135;47.510;19.036;2024-03-02T06:27:02;21.80;57.40
35325;DHT22;35135;47.510;19.036;2024-03-02T06:29:27;21.80;57.50
35325;DHT22;35135;47.510;19.036;2024-03-02T06:31:53;21.80;57.40
35325;DHT22;35135;47.510;19.036;2024-03-02T06:34:18;21.80;57.30
35325;DHT22;35135;47.510;19.036;2024-03-02T06:36:44;21.80;57.30
35325;DHT22;35135;47.510;19.036;2024-03-02T06:39:10;21.70;57.30
35325;DHT22;35135;47.510;19.036;2024-03-02T06:41:36;21.70;57.40
35325;DHT22;35135;47.510;19.036;2024-03-02T06:44:02;21.70;57.40
35325;DHT22;35135;47.510;19.036;2024-03-02T06:46:28;21.70;57.40
35325;DHT22;35135;47.510;19.036;2024-03-02T06:48:54;21.70;57.40
35325;DHT22;35135;47.510;19.036;2024-03-02T06:51:20;21.60;57.40
35325;DHT22;35135;47.510;19.036;2024-03-02T06:53:46;21.70;57.50
35325;DHT22;35135;47.510;19.036;2024-03-02T06:56:12;21.70;57.50
35325;DHT22;35135;47.510;19.036;2024-03-02T06:58:37;21.60;57.50
35325;DHT22;35135;47.510;19.036;2024-03-02T07:01:03;21.70;57.40
35325;DHT22;35135;47.510;19.036;2024-03-02T07:03:29;21.70;57.50
35325;DHT22;35135;47.510;19.036;2024-03-02T07:05:54;21.60;57.40
35325;DHT22;35135;47.510;19.036;2024-03-02T07:08:20;21.60;57.40
35325;DHT22;35135;47.510;19.036;2024-03-02T07:10:46;21.60;57.40
35325;DHT22;35135;47.510;19.036;2024-03-02T07:13:12;21.60;57.40
35325;DHT22;35135;47.510;19.036;2024-03-02T07:15:38;21.60;57.40
35325;DHT22;35135;47.510;19.036;2024-03-02T07:18:22;21.60;57.30
35325;DHT22;35135;47.510;19.036;2024-03-02T07:20:48;21.60;57.30
35325;DHT22;35135;47.510;19.036;2024-03-02T07:23:15;21.60;57.30
35325;DHT22;35135;47.510;19.036;2024-03-02T07:25:40;21.60;57.30
35325;DHT22;35135;47.510;19.036;2024-03-02T07:28:06;21.60;57.30
35325;DHT22;35135;47.510;19.036;2024-03-02T07:30:33;21.60;57.30
35325;DHT22;35135;47.510;19.036;2024-03-02T07:32:59;21.60;57.30
35325;DHT22;35135;47.510;19.036;2024-03-02T07:35:25;21.60;57.30
35325;DHT22;35135;47.510;19.036;2024-03-02T07:37:54;21.60;57.30
35325;DHT22;35135;47.510;19.036;2024-03-02T07:40:21;21.60;57.30
35325;DHT22;35135;47.510;19.036;2024-03-02T07:42:47;21.60;57.30
35325;DHT22;35135;47.510;19.036;2024-03-02T07:45:12;21.60;57.30
35325;DHT22;35135;47.510;19.036;2024-03-02T07:47:38;21.60;57.20
35325;DHT22;35135;47.510;19.036;2024-03-02T07:50:04;21.60;57.30
35325;DHT22;35135;47.510;19.036;2024-03-02T07:52:32;21.60;57.20
35325;DHT22;35135;47.510;19.036;2024-03-02T07:54:59;21.60;57.20
35325;DHT22;35135;47.510;19.036;2024-03-02T07:57:25;21.60;57.30
35325;DHT22;35135;47.510;19.036;2024-03-02T07:59:51;21.60;57.20
35325;DHT22;35135;47.510;19.036;2024-03-02T08:02:17;21.60;57.30
35325;DHT22;35135;47.510;19.036;2024-03-02T08:04:42;21.60;57.20
35325;DHT22;35135;47.510;19.036;2024-03-02T08:07:08;21.70;57.10
35325;DHT22;35135;47.510;19.036;2024-03-02T08:09:34;21.60;55.20
35325;DHT22;35135;47.510;19.036;2024-03-02T08:12:00;21.30;55.50
35325;DHT22;35135;47.510;19.036;2024-03-02T08:14:26;20.90;55.50
35325;DHT22;35135;47.510;19.036;2024-03-02T08:16:52;20.50;57.20
35325;DHT22;35135;47.510;19.036;2024-03-02T08:19:17;20.30;56.50
35325;DHT22;35135;47.510;19.036;2024-03-02T08:21:43;20.00;57.60
35325;DHT22;35135;47.510;19.036;2024-03-02T08:24:09;19.70;58.70
35325;DHT22;35135;47.510;19.036;2024-03-02T08:26:35;19.60;59.80
35325;DHT22;35135;47.510;19.036;2024-03-02T08:29:01;19.90;60.20
35325;DHT22;35135;47.510;19.036;2024-03-02T08:31:29;20.20;59.70
35325;DHT22;35135;47.510;19.036;2024-03-02T08:33:54;20.40;59.20
35325;DHT22;35135;47.510;19.036;2024-03-02T08:36:20;20.60;58.70
35325;DHT22;35135;47.510;19.036;2024-03-02T08:38:49;20.80;58.30
35325;DHT22;35135;47.510;19.036;2024-03-02T08:41:14;20.90;58.00
35325;DHT22;35135;47.510;19.036;2024-03-02T08:43:42;21.00;57.80
35325;DHT22;35135;47.510;19.036;2024-03-02T08:46:08;21.10;57.60
35325;DHT22;35135;47.510;19.036;2024-03-02T08:48:34;21.20;57.50
35325;DHT22;35135;47.510;19.036;2024-03-02T08:51:00;21.20;57.30
35325;DHT22;35135;47.510;19.036;2024-03-02T08:53:25;21.20;57.20
35325;DHT22;35135;47.510;19.036;2024-03-02T08:55:51;21.30;57.20
35325;DHT22;35135;47.510;19.036;2024-03-02T08:58:17;21.30;57.10
35325;DHT22;35135;47.510;19.036;2024-03-02T09:00:43;21.30;57.00
35325;DHT22;35135;47.510;19.036;2024-03-02T09:03:09;21.30;57.00
35325;DHT22;35135;47.510;19.036;2024-03-02T09:05:35;21.30;57.00
35325;DHT22;35135;47.510;19.036;2024-03-02T09:08:01;21.40;56.90
35325;DHT22;35135;47.510;19.036;2024-03-02T09:10:29;21.40;56.90
35325;DHT22;35135;47.510;19.036;2024-03-02T09:12:54;21.40;56.90
35325;DHT22;35135;47.510;19.036;2024-03-02T09:15:20;21.40;56.90
35325;DHT22;35135;47.510;19.036;2024-03-02T09:17:45;21.40;56.90
35325;DHT22;35135;47.510;19.036;2024-03-02T09:20:11;21.40;56.90
35325;DHT22;35135;47.510;19.036;2024-03-02T09:22:37;21.40;56.90
35325;DHT22;35135;47.510;19.036;2024-03-02T09:25:03;21.40;56.80
35325;DHT22;35135;47.510;19.036;2024-03-02T09:27:29;21.40;56.90
35325;DHT22;35135;47.510;19.036;2024-03-02T09:29:54;21.50;56.90
35325;DHT22;35135;47.510;19.036;2024-03-02T09:32:20;21.40;56.80
35325;DHT22;35135;47.510;19.036;2024-03-02T09:34:45;21.40;56.90
35325;DHT22;35135;47.510;19.036;2024-03-02T09:37:13;21.40;56.80
35325;DHT22;35135;47.510;19.036;2024-03-02T09:39:39;21.40;56.70
35325;DHT22;35135;47.510;19.036;2024-03-02T09:42:05;21.50;56.80
35325;DHT22;35135;47.510;19.036;2024-03-02T09:44:32;21.40;57.00
35325;DHT22;35135;47.510;19.036;2024-03-02T09:46:58;21.40;56.80
35325;DHT22;35135;47.510;19.036;2024-03-02T09:49:24;21.40;56.70
35325;DHT22;35135;47.510;19.036;2024-03-02T09:51:49;21.40;56.70
35325;DHT22;35135;47.510;19.036;2024-03-02T09:54:16;21.40;56.70
35325;DHT22;35135;47.510;19.036;2024-03-02T09:56:42;21.50;56.80
35325;DHT22;35135;47.510;19.036;2024-03-02T09:59:08;21.50;56.80
35325;DHT22;35135;47.510;19.036;2024-03-02T10:01:33;21.50;56.80
35325;DHT22;35135;47.510;19.036;2024-03-02T10:03:59;21.40;56.70
35325;DHT22;35135;47.510;19.036;2024-03-02T10:06:26;21.50;56.70
35325;DHT22;35135;47.510;19.036;2024-03-02T10:08:53;21.50;56.70
35325;DHT22;35135;47.510;19.036;2024-03-02T10:11:31;21.40;56.70
35325;DHT22;35135;47.510;19.036;2024-03-02T10:14:11;21.40;56.70
35325;DHT22;35135;47.510;19.036;2024-03-02T10:16:42;21.50;56.70
35325;DHT22;35135;47.510;19.036;2024-03-02T10:21:41;21.50;56.70
35325;DHT22;35135;47.510;19.036;2024-03-02T10:24:07;21.50;56.70
35325;DHT22;35135;47.510;19.036;2024-03-02T10:26:33;21.50;56.70
35325;DHT22;35135;47.510;19.036;2024-03-02T10:28:59;21.50;56.70
35325;DHT22;35135;47.510;19.036;2024-03-02T10:31:25;21.50;56.70
35325;DHT22;35135;47.510;19.036;2024-03-02T10:33:55;21.50;56.70
35325;DHT22;35135;47.510;19.036;2024-03-02T10:36:21;21.50;56.60
35325;DHT22;35135;47.510;19.036;2024-03-02T10:38:47;21.40;56.60
35325;DHT22;35135;47.510;19.036;2024-03-02T10:41:17;21.50;56.60
35325;DHT22;35135;47.510;19.036;2024-03-02T10:43:44;21.40;56.60
35325;DHT22;35135;47.510;19.036;2024-03-02T10:46:11;21.50;56.60
35325;DHT22;35135;47.510;19.036;2024-03-02T10:48:39;21.50;56.60
35325;DHT22;35135;47.510;19.036;2024-03-02T10:51:06;21.50;56.60
35325;DHT22;35135;47.510;19.036;2024-03-02T10:53:32;21.40;56.60
35325;DHT22;35135;47.510;19.036;2024-03-02T10:55:58;21.40;56.50
35325;DHT22;35135;47.510;19.036;2024-03-02T10:58:32;21.50;56.60
35325;DHT22;35135;47.510;19.036;2024-03-02T11:01:04;21.50;56.60
35325;DHT22;35135;47.510;19.036;2024-03-02T11:03:35;21.50;56.60
35325;DHT22;35135;47.510;19.036;2024-03-02T11:06:07;21.40;56.50
35325;DHT22;35135;47.510;19.036;2024-03-02T11:08:34;21.50;56.60
35325;DHT22;35135;47.510;19.036;2024-03-02T11:11:07;21.50;56.60
35325;DHT22;35135;47.510;19.036;2024-03-02T11:13:37;21.40;56.50
35325;DHT22;35135;47.510;19.036;2024-03-02T11:16:16;21.40;56.50
35325;DHT22;35135;47.510;19.036;2024-03-02T11:18:45;21.40;56.40
35325;DHT22;35135;47.510;19.036;2024-03-02T11:21:12;21.40;56.40
35325;DHT22;35135;47.510;19.036;2024-03-02T11:23:38;21.50;56.50
35325;DHT22;35135;47.510;19.036;2024-03-02T11:26:18;21.40;56.50
35325;DHT22;35135;47.510;19.036;2024-03-02T11:28:44;21.50;56.50
35325;DHT22;35135;47.510;19.036;2024-03-02T11:31:10;21.50;56.50
35325;DHT22;35135;47.510;19.036;2024-03-02T11:33:36;21.50;56.50
35325;DHT22;35135;47.510;19.036;2024-03-02T11:36:02;21.50;56.50
35325;DHT22;35135;47.510;19.036;2024-03-02T11:38:28;21.50;56.50
35325;DHT22;35135;47.510;19.036;2024-03-02T11:40:55;21.50;56.50
35325;DHT22;35135;47.510;19.036;2024-03-02T11:43:21;21.50;56.50
35325;DHT22;35135;47.510;19.036;2024-03-02T11:45:46;21.60;56.60
35325;DHT22;35135;47.510;19.036;2024-03-02T11:48:15;21.50;56.50
35325;DHT22;35135;47.510;19.036;2024-03-02T11:53:14;21.60;56.50
35325;DHT22;35135;47.510;19.036;2024-03-02T11:55:41;21.50;56.40
35325;DHT22;35135;47.510;19.036;2024-03-02T11:58:09;21.50;56.40
35325;DHT22;35135;47.510;19.036;2024-03-02T12:00:35;21.60;56.40
35325;DHT22;35135;47.510;19.036;2024-03-02T12:03:05;21.50;56.60
35325;DHT22;35135;47.510;19.036;2024-03-02T12:05:32;21.50;56.70
35325;DHT22;35135;47.510;19.036;2024-03-02T12:08:01;21.50;56.50
35325;DHT22;35135;47.510;19.036;2024-03-02T12:10:28;21.60;56.60
35325;DHT22;35135;47.510;19.036;2024-03-02T12:13:04;21.60;56.60
35325;DHT22;35135;47.510;19.036;2024-03-02T12:15:35;21.60;56.60
35325;DHT22;35135;47.510;19.036;2024-03-02T12:18:05;21.60;56.70
35325;DHT22;35135;47.510;19.036;2024-03-02T12:20:32;21.60;56.70
35325;DHT22;35135;47.510;19.036;2024-03-02T12:22:59;21.60;56.70
35325;DHT22;35135;47.510;19.036;2024-03-02T12:25:26;21.60;56.80
35325;DHT22;35135;47.510;19.036;2024-03-02T12:27:57;21.60;56.90
35325;DHT22;35135;47.510;19.036;2024-03-02T12:30:26;21.60;57.60
35325;DHT22;35135;47.510;19.036;2024-03-02T12:32:52;21.60;57.40
35325;DHT22;35135;47.510;19.036;2024-03-02T12:35:18;21.60;57.30
35325;DHT22;35135;47.510;19.036;2024-03-02T12:37:45;21.70;57.40
35325;DHT22;35135;47.510;19.036;2024-03-02T12:40:11;21.70;57.20
35325;DHT22;35135;47.510;19.036;2024-03-02T12:42:38;21.70;57.30
35325;DHT22;35135;47.510;19.036;2024-03-02T12:45:06;21.70;57.20
35325;DHT22;35135;47.510;19.036;2024-03-02T12:47:32;21.70;57.50
35325;DHT22;35135;47.510;19.036;2024-03-02T12:49:59;21.70;57.40
35325;DHT22;35135;47.510;19.036;2024-03-02T12:52:24;21.70;57.70
35325;DHT22;35135;47.510;19.036;2024-03-02T12:54:50;21.70;57.90
35325;DHT22;35135;47.510;19.036;2024-03-02T12:57:19;21.70;58.00
35325;DHT22;35135;47.510;19.036;2024-03-02T12:59:48;21.70;57.80
35325;DHT22;35135;47.510;19.036;2024-03-02T13:02:17;21.80;57.70
35325;DHT22;35135;47.510;19.036;2024-03-02T13:04:43;21.80;57.80
35325;DHT22;35135;47.510;19.036;2024-03-02T13:07:13;21.80;57.70
35325;DHT22;35135;47.510;19.036;2024-03-02T13:09:39;21.70;57.60
35325;DHT22;35135;47.510;19.036;2024-03-02T13:12:05;21.70;57.60
35325;DHT22;35135;47.510;19.036;2024-03-02T13:14:35;21.70;57.70
35325;DHT22;35135;47.510;19.036;2024-03-02T13:17:01;21.70;57.70
35325;DHT22;35135;47.510;19.036;2024-03-02T13:19:30;21.70;57.80
35325;DHT22;35135;47.510;19.036;2024-03-02T13:21:56;21.70;57.80
35325;DHT22;35135;47.510;19.036;2024-03-02T13:24:27;21.70;57.80
35325;DHT22;35135;47.510;19.036;2024-03-02T13:26:55;21.70;57.80
35325;DHT22;35135;47.510;19.036;2024-03-02T13:29:22;21.70;57.90
35325;DHT22;35135;47.510;19.036;2024-03-02T13:31:48;21.70;58.10
35325;DHT22;35135;47.510;19.036;2024-03-02T13:34:14;21.70;58.30
35325;DHT22;35135;47.510;19.036;2024-03-02T13:36:39;21.70;58.10
35325;DHT22;35135;47.510;19.036;2024-03-02T13:39:05;21.70;58.10
35325;DHT22;35135;47.510;19.036;2024-03-02T13:41:34;21.80;58.10
35325;DHT22;35135;47.510;19.036;2024-03-02T13:44:00;21.70;58.50
35325;DHT22;35135;47.510;19.036;2024-03-02T13:46:27;21.70;58.60
35325;DHT22;35135;47.510;19.036;2024-03-02T13:48:53;21.70;58.30
35325;DHT22;35135;47.510;19.036;2024-03-02T13:51:19;21.60;58.80
35325;DHT22;35135;47.510;19.036;2024-03-02T13:53:45;21.60;58.40
35325;DHT22;35135;47.510;19.036;2024-03-02T13:56:10;21.60;58.40
35325;DHT22;35135;47.510;19.036;2024-03-02T13:58:37;21.60;58.60
35325;DHT22;35135;47.510;19.036;2024-03-02T14:01:03;21.70;58.60
35325;DHT22;35135;47.510;19.036;2024-03-02T14:03:30;21.70;58.30
35325;DHT22;35135;47.510;19.036;2024-03-02T14:05:55;21.70;58.90
35325;DHT22;35135;47.510;19.036;2024-03-02T14:08:21;21.70;58.50
35325;DHT22;35135;47.510;19.036;2024-03-02T14:10:47;21.70;58.30
35325;DHT22;35135;47.510;19.036;2024-03-02T14:13:13;21.80;58.30
35325;DHT22;35135;47.510;19.036;2024-03-02T14:15:38;21.80;58.20
35325;DHT22;35135;47.510;19.036;2024-03-02T14:18:05;21.80;58.20
35325;DHT22;35135;47.510;19.036;2024-03-02T14:20:31;21.80;58.10
35325;DHT22;35135;47.510;19.036;2024-03-02T14:22:58;21.80;58.40
35325;DHT22;35135;47.510;19.036;2024-03-02T14:25:25;21.80;58.50
35325;DHT22;35135;47.510;19.036;2024-03-02T14:27:50;21.80;58.50
35325;DHT22;35135;47.510;19.036;2024-03-02T14:30:16;21.80;58.70
35325;DHT22;35135;47.510;19.036;2024-03-02T14:32:42;21.80;58.30
35325;DHT22;35135;47.510;19.036;2024-03-02T14:35:08;21.80;58.10
35325;DHT22;35135;47.510;19.036;2024-03-02T14:37:37;21.80;55.90
35325;DHT22;35135;47.510;19.036;2024-03-02T14:40:03;21.60;56.30
35325;DHT22;35135;47.510;19.036;2024-03-02T14:42:32;21.60;57.10
35325;DHT22;35135;47.510;19.036;2024-03-02T14:44:57;21.60;57.40
35325;DHT22;35135;47.510;19.036;2024-03-02T14:47:23;21.60;57.60
35325;DHT22;35135;47.510;19.036;2024-03-02T14:49:50;21.60;57.50
35325;DHT22;35135;47.510;19.036;2024-03-02T14:52:15;21.60;57.40
35325;DHT22;35135;47.510;19.036;2024-03-02T14:54:44;21.60;57.50
35325;DHT22;35135;47.510;19.036;2024-03-02T14:57:10;21.60;57.60
35325;DHT22;35135;47.510;19.036;2024-03-02T14:59:36;21.70;57.70
35325;DHT22;35135;47.510;19.036;2024-03-02T15:02:03;21.70;57.80
35325;DHT22;35135;47.510;19.036;2024-03-02T15:04:28;21.70;57.60
35325;DHT22;35135;47.510;19.036;2024-03-02T15:06:54;21.70;57.70
35325;DHT22;35135;47.510;19.036;2024-03-02T15:09:20;21.70;57.70
35325;DHT22;35135;47.510;19.036;2024-03-02T15:11:45;21.80;57.80
35325;DHT22;35135;47.510;19.036;2024-03-02T15:14:11;21.80;57.80
35325;DHT22;35135;47.510;19.036;2024-03-02T15:16:37;21.80;57.90
35325;DHT22;35135;47.510;19.036;2024-03-02T15:19:03;21.80;58.00